sensor_id;sensor_type;location;lat;lon;timestamp;P1;durP1;ratioP1;P2;durP2;ratioP2
81217;SDS011;70689;52.494;13.420;2023-09-18T00:01:04;10.68;;;9.23;;
81217;SDS011;70689;52.494;13.420;2023-09-18T00:03:31;10.55;;;9.45;;
81217;SDS011;70689;52.494;13.420;2023-09-18T00:05:56;11.00;;;9.90;;
81217;SDS011;70689;52.494;13.420;2023-09-18T00:08:23;11.18;;;9.55;;
81217;SDS011;70689;52.494;13.420;2023-09-18T00:10:49;13.38;;;9.57;;
81217;SDS011;70689;52.494;13.420;2023-09-18T00:13:17;10.98;;;9.88;;
81217;SDS011;70689;52.494;13.420;2023-09-18T00:15:43;11.48;;;9.35;;
81217;SDS011;70689;52.494;13.420;2023-09-18T00:18:16;10.50;;;9.32;;
81217;SDS011;70689;52.494;13.420;2023-09-18T00:20:42;10.70;;;9.50;;
81217;SDS011;70689;52.494;13.420;2023-09-18T00:23:08;11.18;;;9.43;;
81217;SDS011;70689;52.494;13.420;2023-09-18T00:25:34;11.30;;;9.68;;
81217;SDS011;70689;52.494;13.420;2023-09-18T00:28:01;10.73;;;9.23;;
81217;SDS011;70689;52.494;13.420;2023-09-18T00:30:27;10.38;;;9.23;;
81217;SDS011;70689;52.494;13.420;2023-09-18T00:32:53;10.43;;;8.93;;
81217;SDS011;70689;52.494;13.420;2023-09-18T00:35:19;13.48;;;9.68;;
81217;SDS011;70689;52.494;13.420;2023-09-18T00:37:44;11.30;;;9.15;;
81217;SDS011;70689;52.494;13.420;2023-09-18T00:40:10;10.70;;;9.45;;
81217;SDS011;70689;52.494;13.420;2023-09-18T00:42:36;10.15;;;8.95;;
81217;SDS011;70689;52.494;13.420;2023-09-18T00:45:02;10.27;;;9.00;;
81217;SDS011;70689;52.494;13.420;2023-09-18T00:47:28;11.32;;;9.20;;
81217;SDS011;70689;52.494;13.420;2023-09-18T00:49:54;12.88;;;9.88;;
81217;SDS011;70689;52.494;13.420;2023-09-18T00:52:20;10.40;;;9.25;;
81217;SDS011;70689;52.494;13.420;2023-09-18T00:54:48;12.82;;;9.27;;
81217;SDS011;70689;52.494;13.420;2023-09-18T00:57:14;9.88;;;8.88;;
81217;SDS011;70689;52.494;13.420;2023-09-18T00:59:40;10.63;;;9.30;;
81217;SDS011;70689;52.494;13.420;2023-09-18T01:02:06;10.20;;;9.10;;
81217;SDS011;70689;52.494;13.420;2023-09-18T01:04:32;11.05;;;9.02;;
81217;SDS011;70689;52.494;13.420;2023-09-18T01:06:59;11.52;;;9.18;;
81217;SDS011;70689;52.494;13.420;2023-09-18T01:09:28;10.68;;;9.25;;
81217;SDS011;70689;52.494;13.420;2023-09-18T01:17:04;10.50;;;9.45;;
81217;SDS011;70689;52.494;13.420;2023-09-18T01:19:36;9.38;;;8.48;;
81217;SDS011;70689;52.494;13.420;2023-09-18T01:22:06;12.18;;;10.80;;
81217;SDS011;70689;52.494;13.420;2023-09-18T01:24:34;10.50;;;9.40;;
81217;SDS011;70689;52.494;13.420;2023-09-18T01:27:01;9.45;;;8.10;;
81217;SDS011;70689;52.494;13.420;2023-09-18T01:29:29;10.45;;;8.77;;
81217;SDS011;70689;52.494;13.420;2023-09-18T01:31:55;9.95;;;8.93;;
81217;SDS011;70689;52.494;13.420;2023-09-18T01:34:23;11.32;;;8.70;;
81217;SDS011;70689;52.494;13.420;2023-09-18T01:36:57;11.23;;;9.20;;
81217;SDS011;70689;52.494;13.420;2023-09-18T01:39:23;10.23;;;8.85;;
81217;SDS011;70689;52.494;13.420;2023-09-18T01:41:55;10.10;;;8.82;;
81217;SDS011;70689;52.494;13.420;2023-09-18T01:44:23;10.43;;;8.50;;
81217;SDS011;70689;52.494;13.420;2023-09-18T01:46:48;9.45;;;8.55;;
81217;SDS011;70689;52.494;13.420;2023-09-18T01:49:16;10.57;;;8.73;;
81217;SDS011;70689;52.494;13.420;2023-09-18T01:51:51;9.48;;;8.38;;
81217;SDS011;70689;52.494;13.420;2023-09-18T01:54:17;11.43;;;9.10;;
81217;SDS011;70689;52.494;13.420;2023-09-18T01:56:42;9.57;;;8.40;;
81217;SDS011;70689;52.494;13.420;2023-09-18T01:59:08;11.98;;;8.48;;
81217;SDS011;70689;52.494;13.420;2023-09-18T02:01:34;11.07;;;8.70;;
81217;SDS011;70689;52.494;13.420;2023-09-18T02:04:00;9.50;;;8.60;;
81217;SDS011;70689;52.494;13.420;2023-09-18T02:06:26;10.02;;;8.90;;
81217;SDS011;70689;52.494;13.420;2023-09-18T02:08:51;10.63;;;8.50;;
81217;SDS011;70689;52.494;13.420;2023-09-18T02:11:18;9.70;;;8.70;;
81217;SDS011;70689;52.494;13.420;2023-09-18T02:13:43;10.57;;;8.85;;
81217;SDS011;70689;52.494;13.420;2023-09-18T02:16:09;10.23;;;8.90;;
81217;SDS011;70689;52.494;13.420;2023-09-18T02:18:35;9.77;;;8.77;;
81217;SDS011;70689;52.494;13.420;2023-09-18T02:21:00;10.38;;;9.38;;
81217;SDS011;70689;52.494;13.420;2023-09-18T02:23:26;10.10;;;8.50;;
81217;SDS011;70689;52.494;13.420;2023-09-18T02:25:55;10.73;;;8.95;;
81217;SDS011;70689;52.494;13.420;2023-09-18T02:28:22;11.70;;;8.90;;
81217;SDS011;70689;52.494;13.420;2023-09-18T02:30:47;11.60;;;8.73;;
81217;SDS011;70689;52.494;13.420;2023-09-18T02:33:13;10.63;;;8.90;;
81217;SDS011;70689;52.494;13.420;2023-09-18T02:35:40;11.15;;;9.60;;
81217;SDS011;70689;52.494;13.420;2023-09-18T02:38:05;9.90;;;8.57;;
81217;SDS011;70689;52.494;13.420;2023-09-18T02:40:31;10.00;;;9.00;;
81217;SDS011;70689;52.494;13.420;2023-09-18T02:42:57;11.07;;;8.35;;
81217;SDS011;70689;52.494;13.420;2023-09-18T02:45:22;10.30;;;9.20;;
81217;SDS011;70689;52.494;13.420;2023-09-18T02:47:48;9.75;;;8.75;;
81217;SDS011;70689;52.494;13.420;2023-09-18T02:50:14;11.23;;;8.98;;
81217;SDS011;70689;52.494;13.420;2023-09-18T02:52:39;10.20;;;8.65;;
81217;SDS011;70689;52.494;13.420;2023-09-18T02:55:05;9.35;;;8.45;;
81217;SDS011;70689;52.494;13.420;2023-09-18T02:57:31;9.82;;;8.57;;
81217;SDS011;70689;52.494;13.420;2023-09-18T02:59:56;10.55;;;8.82;;
81217;SDS011;70689;52.494;13.420;2023-09-18T03:02:22;11.27;;;8.80;;
81217;SDS011;70689;52.494;13.420;2023-09-18T03:04:48;10.00;;;9.00;;
81217;SDS011;70689;52.494;13.420;2023-09-18T03:07:14;9.88;;;8.73;;
81217;SDS011;70689;52.494;13.420;2023-09-18T03:09:41;9.60;;;8.60;;
81217;SDS011;70689;52.494;13.420;2023-09-18T03:12:06;11.45;;;8.80;;
81217;SDS011;70689;52.494;13.420;2023-09-18T03:14:32;10.85;;;9.10;;
81217;SDS011;70689;52.494;13.420;2023-09-18T03:16:59;10.18;;;9.02;;
81217;SDS011;70689;52.494;13.420;2023-09-18T03:19:25;11.18;;;9.30;;
81217;SDS011;70689;52.494;13.420;2023-09-18T03:21:52;10.13;;;8.73;;
81217;SDS011;70689;52.494;13.420;2023-09-18T03:24:17;9.57;;;8.57;;
81217;SDS011;70689;52.494;13.420;2023-09-18T03:26:43;11.05;;;8.90;;
81217;SDS011;70689;52.494;13.420;2023-09-18T03:29:09;13.25;;;9.60;;
81217;SDS011;70689;52.494;13.420;2023-09-18T03:31:35;12.40;;;9.30;;
81217;SDS011;70689;52.494;13.420;2023-09-18T03:34:01;9.57;;;8.68;;
81217;SDS011;70689;52.494;13.420;2023-09-18T03:36:27;9.90;;;8.90;;
81217;SDS011;70689;52.494;13.420;2023-09-18T03:38:52;10.07;;;8.73;;
81217;SDS011;70689;52.494;13.420;2023-09-18T03:41:18;9.55;;;8.48;;
81217;SDS011;70689;52.494;13.420;2023-09-18T03:43:43;12.25;;;9.90;;
81217;SDS011;70689;52.494;13.420;2023-09-18T03:46:09;12.27;;;8.20;;
81217;SDS011;70689;52.494;13.420;2023-09-18T03:48:35;11.02;;;8.40;;
81217;SDS011;70689;52.494;13.420;2023-09-18T03:51:05;9.82;;;8.23;;
81217;SDS011;70689;52.494;13.420;2023-09-18T03:53:33;10.95;;;8.32;;
81217;SDS011;70689;52.494;13.420;2023-09-18T03:55:59;11.55;;;8.82;;
81217;SDS011;70689;52.494;13.420;2023-09-18T03:58:25;9.90;;;8.73;;
81217;SDS011;70689;52.494;13.420;2023-09-18T04:00:51;10.63;;;8.43;;
81217;SDS011;70689;52.494;13.420;2023-09-18T04:03:18;9.38;;;8.40;;
81217;SDS011;70689;52.494;13.420;2023-09-18T04:05:44;10.00;;;8.60;;
81217;SDS011;70689;52.494;13.420;2023-09-18T04:08:09;9.30;;;8.40;;
81217;SDS011;70689;52.494;13.420;2023-09-18T04:10:36;9.38;;;8.15;;
81217;SDS011;70689;52.494;13.420;2023-09-18T04:13:02;10.82;;;8.48;;
81217;SDS011;70689;52.494;13.420;2023-09-18T04:15:27;9.95;;;8.77;;
81217;SDS011;70689;52.494;13.420;2023-09-18T04:17:55;11.18;;;8.98;;
81217;SDS011;70689;52.494;13.420;2023-09-18T04:20:21;13.82;;;9.20;;
81217;SDS011;70689;52.494;13.420;2023-09-18T04:22:48;10.68;;;8.65;;
81217;SDS011;70689;52.494;13.420;2023-09-18T04:26:02;11.07;;;9.13;;
81217;SDS011;70689;52.494;13.420;2023-09-18T04:28:28;9.48;;;8.35;;
81217;SDS011;70689;52.494;13.420;2023-09-18T04:30:53;9.50;;;8.50;;
81217;SDS011;70689;52.494;13.420;2023-09-18T04:33:19;10.13;;;8.65;;
81217;SDS011;70689;52.494;13.420;2023-09-18T04:35:46;12.23;;;8.50;;
81217;SDS011;70689;52.494;13.420;2023-09-18T04:38:12;9.95;;;8.85;;
81217;SDS011;70689;52.494;13.420;2023-09-18T04:40:40;11.40;;;8.85;;
81217;SDS011;70689;52.494;13.420;2023-09-18T04:43:05;8.73;;;7.85;;
81217;SDS011;70689;52.494;13.420;2023-09-18T04:45:31;12.38;;;8.57;;
81217;SDS011;70689;52.494;13.420;2023-09-18T04:47:57;10.40;;;8.77;;
81217;SDS011;70689;52.494;13.420;2023-09-18T04:50:23;10.07;;;8.98;;
81217;SDS011;70689;52.494;13.420;2023-09-18T04:52:51;11.73;;;8.63;;
81217;SDS011;70689;52.494;13.420;2023-09-18T04:55:19;13.13;;;8.77;;
81217;SDS011;70689;52.494;13.420;2023-09-18T04:57:46;12.15;;;9.25;;
81217;SDS011;70689;52.494;13.420;2023-09-18T05:00:12;25.42;;;9.35;;
81217;SDS011;70689;52.494;13.420;2023-09-18T05:02:39;12.93;;;8.98;;
81217;SDS011;70689;52.494;13.420;2023-09-18T05:05:05;12.32;;;8.50;;
81217;SDS011;70689;52.494;13.420;2023-09-18T05:07:33;14.10;;;9.23;;
81217;SDS011;70689;52.494;13.420;2023-09-18T05:09:59;14.13;;;8.88;;
81217;SDS011;70689;52.494;13.420;2023-09-18T05:12:25;11.10;;;8.75;;
81217;SDS011;70689;52.494;13.420;2023-09-18T05:14:51;10.75;;;9.00;;
81217;SDS011;70689;52.494;13.420;2023-09-18T05:17:17;23.45;;;9.65;;
81217;SDS011;70689;52.494;13.420;2023-09-18T05:19:43;13.77;;;9.23;;
81217;SDS011;70689;52.494;13.420;2023-09-18T05:22:08;15.68;;;9.30;;
81217;SDS011;70689;52.494;13.420;2023-09-18T05:24:37;18.83;;;9.48;;
81217;SDS011;70689;52.494;13.420;2023-09-18T05:27:03;15.13;;;9.68;;
81217;SDS011;70689;52.494;13.420;2023-09-18T05:29:31;13.30;;;9.48;;
81217;SDS011;70689;52.494;13.420;2023-09-18T05:31:57;12.80;;;8.57;;
81217;SDS011;70689;52.494;13.420;2023-09-18T05:34:22;16.85;;;9.23;;
81217;SDS011;70689;52.494;13.420;2023-09-18T05:36:48;19.25;;;9.40;;
81217;SDS011;70689;52.494;13.420;2023-09-18T05:39:15;20.55;;;9.57;;
81217;SDS011;70689;52.494;13.420;2023-09-18T05:41:40;11.68;;;9.50;;
81217;SDS011;70689;52.494;13.420;2023-09-18T05:44:06;11.90;;;9.00;;
81217;SDS011;70689;52.494;13.420;2023-09-18T05:46:35;16.95;;;9.57;;
81217;SDS011;70689;52.494;13.420;2023-09-18T05:49:02;18.30;;;8.93;;
81217;SDS011;70689;52.494;13.420;2023-09-18T05:51:28;14.32;;;8.85;;
81217;SDS011;70689;52.494;13.420;2023-09-18T05:53:54;23.38;;;10.18;;
81217;SDS011;70689;52.494;13.420;2023-09-18T05:56:20;14.73;;;9.75;;
81217;SDS011;70689;52.494;13.420;2023-09-18T05:58:48;23.02;;;10.10;;
81217;SDS011;70689;52.494;13.420;2023-09-18T06:01:17;20.17;;;9.63;;
81217;SDS011;70689;52.494;13.420;2023-09-18T06:03:46;14.40;;;10.13;;
81217;SDS011;70689;52.494;13.420;2023-09-18T06:06:12;16.38;;;9.40;;
81217;SDS011;70689;52.494;13.420;2023-09-18T06:08:39;12.60;;;8.95;;
81217;SDS011;70689;52.494;13.420;2023-09-18T06:11:04;12.20;;;8.80;;
81217;SDS011;70689;52.494;13.420;2023-09-18T06:13:30;12.48;;;8.40;;
81217;SDS011;70689;52.494;13.420;2023-09-18T06:15:56;19.77;;;9.80;;
81217;SDS011;70689;52.494;13.420;2023-09-18T06:18:22;18.60;;;10.05;;
81217;SDS011;70689;52.494;13.420;2023-09-18T06:20:48;12.68;;;8.73;;
81217;SDS011;70689;52.494;13.420;2023-09-18T06:23:14;14.63;;;9.27;;
81217;SDS011;70689;52.494;13.420;2023-09-18T06:25:40;20.30;;;9.90;;
81217;SDS011;70689;52.494;13.420;2023-09-18T06:28:06;11.77;;;8.57;;
81217;SDS011;70689;52.494;13.420;2023-09-18T06:30:32;12.07;;;8.35;;
81217;SDS011;70689;52.494;13.420;2023-09-18T06:32:58;10.13;;;7.53;;
81217;SDS011;70689;52.494;13.420;2023-09-18T06:35:25;20.50;;;13.80;;
81217;SDS011;70689;52.494;13.420;2023-09-18T06:37:50;12.95;;;10.10;;
81217;SDS011;70689;52.494;13.420;2023-09-18T06:40:16;14.55;;;10.65;;
81217;SDS011;70689;52.494;13.420;2023-09-18T06:42:42;12.32;;;9.20;;
81217;SDS011;70689;52.494;13.420;2023-09-18T06:45:08;12.48;;;8.63;;
81217;SDS011;70689;52.494;13.420;2023-09-18T06:47:34;12.38;;;9.65;;
81217;SDS011;70689;52.494;13.420;2023-09-18T06:49:59;17.77;;;9.63;;
81217;SDS011;70689;52.494;13.420;2023-09-18T06:52:25;10.73;;;7.82;;
81217;SDS011;70689;52.494;13.420;2023-09-18T06:54:53;13.13;;;7.85;;
81217;SDS011;70689;52.494;13.420;2023-09-18T06:57:18;14.13;;;7.63;;
81217;SDS011;70689;52.494;13.420;2023-09-18T06:59:46;9.18;;;6.80;;
81217;SDS011;70689;52.494;13.420;2023-09-18T07:02:12;7.85;;;7.05;;
81217;SDS011;70689;52.494;13.420;2023-09-18T07:04:41;10.85;;;7.20;;
81217;SDS011;70689;52.494;13.420;2023-09-18T07:07:14;19.10;;;7.90;;
81217;SDS011;70689;52.494;13.420;2023-09-18T07:09:40;12.65;;;7.32;;
81217;SDS011;70689;52.494;13.420;2023-09-18T07:12:06;13.27;;;6.80;;
81217;SDS011;70689;52.494;13.420;2023-09-18T07:14:34;9.50;;;6.60;;
81217;SDS011;70689;52.494;13.420;2023-09-18T07:17:00;8.55;;;6.00;;
81217;SDS011;70689;52.494;13.420;2023-09-18T07:19:27;8.25;;;6.18;;
81217;SDS011;70689;52.494;13.420;2023-09-18T07:21:52;19.58;;;6.88;;
81217;SDS011;70689;52.494;13.420;2023-09-18T07:24:18;11.32;;;6.38;;
81217;SDS011;70689;52.494;13.420;2023-09-18T07:26:45;9.90;;;6.05;;
81217;SDS011;70689;52.494;13.420;2023-09-18T07:29:14;9.18;;;6.97;;
81217;SDS011;70689;52.494;13.420;2023-09-18T07:31:43;10.93;;;6.30;;
81217;SDS011;70689;52.494;13.420;2023-09-18T07:34:09;8.30;;;7.25;;
81217;SDS011;70689;52.494;13.420;2023-09-18T07:36:36;16.08;;;9.18;;
81217;SDS011;70689;52.494;13.420;2023-09-18T07:39:02;19.80;;;10.32;;
81217;SDS011;70689;52.494;13.420;2023-09-18T07:41:29;19.08;;;10.02;;
81217;SDS011;70689;52.494;13.420;2023-09-18T07:43:56;17.40;;;9.75;;
81217;SDS011;70689;52.494;13.420;2023-09-18T07:46:23;14.10;;;8.80;;
81217;SDS011;70689;52.494;13.420;2023-09-18T07:48:49;8.07;;;6.57;;
81217;SDS011;70689;52.494;13.420;2023-09-18T07:51:15;9.07;;;5.75;;
81217;SDS011;70689;52.494;13.420;2023-09-18T07:53:43;10.00;;;7.68;;
81217;SDS011;70689;52.494;13.420;2023-09-18T07:56:09;9.63;;;6.95;;
81217;SDS011;70689;52.494;13.420;2023-09-18T07:58:35;9.80;;;6.25;;
81217;SDS011;70689;52.494;13.420;2023-09-18T08:01:03;12.23;;;6.97;;
81217;SDS011;70689;52.494;13.420;2023-09-18T08:03:30;9.75;;;6.70;;
81217;SDS011;70689;52.494;13.420;2023-09-18T08:05:56;6.47;;;5.80;;
81217;SDS011;70689;52.494;13.420;2023-09-18T08:08:22;10.02;;;5.93;;
81217;SDS011;70689;52.494;13.420;2023-09-18T08:10:49;9.65;;;5.82;;
81217;SDS011;70689;52.494;13.420;2023-09-18T08:13:16;10.63;;;6.03;;
81217;SDS011;70689;52.494;13.420;2023-09-18T08:15:42;10.80;;;5.20;;
81217;SDS011;70689;52.494;13.420;2023-09-18T08:18:08;6.18;;;5.40;;
81217;SDS011;70689;52.494;13.420;2023-09-18T08:20:35;6.57;;;5.50;;
81217;SDS011;70689;52.494;13.420;2023-09-18T08:23:05;6.55;;;5.40;;
81217;SDS011;70689;52.494;13.420;2023-09-18T08:25:31;8.63;;;5.80;;
81217;SDS011;70689;52.494;13.420;2023-09-18T08:27:57;7.95;;;5.43;;
81217;SDS011;70689;52.494;13.420;2023-09-18T08:30:23;6.63;;;4.95;;
81217;SDS011;70689;52.494;13.420;2023-09-18T08:32:49;7.03;;;5.15;;
81217;SDS011;70689;52.494;13.420;2023-09-18T08:35:15;13.02;;;5.47;;
81217;SDS011;70689;52.494;13.420;2023-09-18T08:37:41;7.10;;;5.32;;
81217;SDS011;70689;52.494;13.420;2023-09-18T08:40:07;6.20;;;4.80;;
81217;SDS011;70689;52.494;13.420;2023-09-18T08:42:39;6.27;;;4.83;;
81217;SDS011;70689;52.494;13.420;2023-09-18T08:45:10;6.50;;;4.75;;
81217;SDS011;70689;52.494;13.420;2023-09-18T08:47:40;7.53;;;5.55;;
81217;SDS011;70689;52.494;13.420;2023-09-18T08:50:07;7.47;;;5.15;;
81217;SDS011;70689;52.494;13.420;2023-09-18T08:52:35;7.20;;;5.50;;
81217;SDS011;70689;52.494;13.420;2023-09-18T08:55:01;7.43;;;5.03;;
81217;SDS011;70689;52.494;13.420;2023-09-18T08:57:29;7.88;;;5.28;;
81217;SDS011;70689;52.494;13.420;2023-09-18T08:59:55;6.82;;;5.25;;
81217;SDS011;70689;52.494;13.420;2023-09-18T09:02:30;6.10;;;5.25;;
81217;SDS011;70689;52.494;13.420;2023-09-18T09:04:56;10.35;;;5.10;;
81217;SDS011;70689;52.494;13.420;2023-09-18T09:07:21;5.57;;;5.07;;
81217;SDS011;70689;52.494;13.420;2023-09-18T09:09:47;6.45;;;5.25;;
81217;SDS011;70689;52.494;13.420;2023-09-18T09:12:12;11.40;;;5.10;;
81217;SDS011;70689;52.494;13.420;2023-09-18T09:14:38;6.68;;;4.65;;
81217;SDS011;70689;52.494;13.420;2023-09-18T09:17:04;8.40;;;5.35;;
81217;SDS011;70689;52.494;13.420;2023-09-18T09:19:33;7.10;;;5.18;;
81217;SDS011;70689;52.494;13.420;2023-09-18T09:22:07;6.05;;;4.53;;
81217;SDS011;70689;52.494;13.420;2023-09-18T09:24:37;7.68;;;5.10;;
81217;SDS011;70689;52.494;13.420;2023-09-18T09:27:05;5.18;;;4.55;;
81217;SDS011;70689;52.494;13.420;2023-09-18T09:29:30;8.82;;;5.10;;
81217;SDS011;70689;52.494;13.420;2023-09-18T09:31:56;7.80;;;4.70;;
81217;SDS011;70689;52.494;13.420;2023-09-18T09:34:36;8.10;;;5.82;;
81217;SDS011;70689;52.494;13.420;2023-09-18T09:37:02;8.43;;;4.80;;
81217;SDS011;70689;52.494;13.420;2023-09-18T09:39:29;5.10;;;4.57;;
81217;SDS011;70689;52.494;13.420;2023-09-18T09:41:55;10.70;;;4.72;;
81217;SDS011;70689;52.494;13.420;2023-09-18T09:44:26;6.13;;;4.40;;
81217;SDS011;70689;52.494;13.420;2023-09-18T09:46:53;5.35;;;4.50;;
81217;SDS011;70689;52.494;13.420;2023-09-18T09:49:19;8.15;;;4.57;;
81217;SDS011;70689;52.494;13.420;2023-09-18T09:51:48;8.27;;;4.35;;
81217;SDS011;70689;52.494;13.420;2023-09-18T09:54:13;9.70;;;4.30;;
81217;SDS011;70689;52.494;13.420;2023-09-18T09:56:46;9.18;;;4.18;;
81217;SDS011;70689;52.494;13.420;2023-09-18T09:59:16;5.68;;;4.57;;
81217;SDS011;70689;52.494;13.420;2023-09-18T10:01:45;5.22;;;4.60;;
81217;SDS011;70689;52.494;13.420;2023-09-18T10:04:14;6.10;;;4.68;;
81217;SDS011;70689;52.494;13.420;2023-09-18T10:06:45;5.50;;;4.80;;
81217;SDS011;70689;52.494;13.420;2023-09-18T10:09:16;6.40;;;4.57;;
81217;SDS011;70689;52.494;13.420;2023-09-18T10:11:45;5.03;;;4.55;;
81217;SDS011;70689;52.494;13.420;2023-09-18T10:14:18;9.43;;;4.78;;
81217;SDS011;70689;52.494;13.420;2023-09-18T10:16:48;5.32;;;4.70;;
81217;SDS011;70689;52.494;13.420;2023-09-18T10:22:01;7.55;;;4.90;;
81217;SDS011;70689;52.494;13.420;2023-09-18T10:24:36;5.47;;;4.97;;
81217;SDS011;70689;52.494;13.420;2023-09-18T10:27:06;10.52;;;5.32;;
81217;SDS011;70689;52.494;13.420;2023-09-18T10:29:36;7.28;;;4.80;;
81217;SDS011;70689;52.494;13.420;2023-09-18T10:32:03;9.07;;;4.60;;
81217;SDS011;70689;52.494;13.420;2023-09-18T10:34:38;6.72;;;4.90;;
81217;SDS011;70689;52.494;13.420;2023-09-18T10:37:04;6.95;;;4.85;;
81217;SDS011;70689;52.494;13.420;2023-09-18T10:39:32;8.60;;;4.78;;
81217;SDS011;70689;52.494;13.420;2023-09-18T10:42:00;8.38;;;4.90;;
81217;SDS011;70689;52.494;13.420;2023-09-18T10:44:28;6.55;;;4.68;;
81217;SDS011;70689;52.494;13.420;2023-09-18T10:46:56;6.72;;;4.50;;
81217;SDS011;70689;52.494;13.420;2023-09-18T10:49:23;6.30;;;4.22;;
81217;SDS011;70689;52.494;13.420;2023-09-18T10:51:51;6.85;;;4.55;;
81217;SDS011;70689;52.494;13.420;2023-09-18T10:54:23;7.70;;;4.93;;
81217;SDS011;70689;52.494;13.420;2023-09-18T10:56:49;7.50;;;4.50;;
81217;SDS011;70689;52.494;13.420;2023-09-18T10:59:16;8.60;;;4.80;;
81217;SDS011;70689;52.494;13.420;2023-09-18T11:01:42;6.82;;;4.78;;
81217;SDS011;70689;52.494;13.420;2023-09-18T11:04:09;12.35;;;4.80;;
81217;SDS011;70689;52.494;13.420;2023-09-18T11:09:23;6.47;;;4.78;;
81217;SDS011;70689;52.494;13.420;2023-09-18T11:12:08;7.18;;;5.15;;
81217;SDS011;70689;52.494;13.420;2023-09-18T11:14:43;6.30;;;4.47;;
81217;SDS011;70689;52.494;13.420;2023-09-18T11:20:09;8.35;;;5.03;;
81217;SDS011;70689;52.494;13.420;2023-09-18T11:27:56;7.78;;;5.00;;
81217;SDS011;70689;52.494;13.420;2023-09-18T11:30:22;7.72;;;4.72;;
81217;SDS011;70689;52.494;13.420;2023-09-18T11:32:51;6.00;;;5.40;;
81217;SDS011;70689;52.494;13.420;2023-09-18T11:35:18;8.25;;;5.00;;
81217;SDS011;70689;52.494;13.420;2023-09-18T11:37:45;5.47;;;4.53;;
81217;SDS011;70689;52.494;13.420;2023-09-18T11:40:30;13.80;;;5.05;;
81217;SDS011;70689;52.494;13.420;2023-09-18T11:43:19;9.25;;;5.18;;
81217;SDS011;70689;52.494;13.420;2023-09-18T11:45:55;9.13;;;4.80;;
81217;SDS011;70689;52.494;13.420;2023-09-18T11:48:27;6.43;;;5.07;;
81217;SDS011;70689;52.494;13.420;2023-09-18T11:50:54;6.78;;;4.85;;
81217;SDS011;70689;52.494;13.420;2023-09-18T11:53:23;6.57;;;5.40;;
81217;SDS011;70689;52.494;13.420;2023-09-18T11:55:51;10.43;;;4.90;;
81217;SDS011;70689;52.494;13.420;2023-09-18T11:58:17;7.30;;;5.20;;
81217;SDS011;70689;52.494;13.420;2023-09-18T12:00:47;6.43;;;4.65;;
81217;SDS011;70689;52.494;13.420;2023-09-18T12:03:20;11.55;;;5.28;;
81217;SDS011;70689;52.494;13.420;2023-09-18T12:05:57;7.10;;;4.75;;
81217;SDS011;70689;52.494;13.420;2023-09-18T12:08:24;7.65;;;4.82;;
81217;SDS011;70689;52.494;13.420;2023-09-18T12:10:52;8.07;;;4.60;;
81217;SDS011;70689;52.494;13.420;2023-09-18T12:13:18;7.60;;;4.75;;
81217;SDS011;70689;52.494;13.420;2023-09-18T12:15:44;7.28;;;4.32;;
81217;SDS011;70689;52.494;13.420;2023-09-18T12:18:10;6.50;;;4.78;;
81217;SDS011;70689;52.494;13.420;2023-09-18T12:20:49;5.85;;;4.63;;
81217;SDS011;70689;52.494;13.420;2023-09-18T12:23:15;6.72;;;4.70;;
81217;SDS011;70689;52.494;13.420;2023-09-18T12:25:45;7.03;;;4.47;;
81217;SDS011;70689;52.494;13.420;2023-09-18T12:28:13;6.97;;;4.45;;
81217;SDS011;70689;52.494;13.420;2023-09-18T12:30:42;6.10;;;4.07;;
81217;SDS011;70689;52.494;13.420;2023-09-18T12:33:11;8.23;;;4.32;;
81217;SDS011;70689;52.494;13.420;2023-09-18T12:35:40;4.82;;;4.32;;
81217;SDS011;70689;52.494;13.420;2023-09-18T12:38:18;5.25;;;4.38;;
81217;SDS011;70689;52.494;13.420;2023-09-18T12:40:48;5.82;;;4.90;;
81217;SDS011;70689;52.494;13.420;2023-09-18T12:43:14;6.72;;;4.55;;
81217;SDS011;70689;52.494;13.420;2023-09-18T12:45:40;8.45;;;4.75;;
81217;SDS011;70689;52.494;13.420;2023-09-18T12:48:08;5.75;;;4.32;;
81217;SDS011;70689;52.494;13.420;2023-09-18T12:50:35;8.05;;;4.70;;
81217;SDS011;70689;52.494;13.420;2023-09-18T12:53:11;7.95;;;4.18;;
81217;SDS011;70689;52.494;13.420;2023-09-18T12:55:37;4.90;;;4.22;;
81217;SDS011;70689;52.494;13.420;2023-09-18T12:58:04;5.57;;;4.38;;
81217;SDS011;70689;52.494;13.420;2023-09-18T13:00:35;7.30;;;4.35;;
81217;SDS011;70689;52.494;13.420;2023-09-18T13:03:01;8.00;;;4.55;;
81217;SDS011;70689;52.494;13.420;2023-09-18T13:05:29;7.18;;;4.68;;
81217;SDS011;70689;52.494;13.420;2023-09-18T13:08:02;7.43;;;4.00;;
81217;SDS011;70689;52.494;13.420;2023-09-18T13:10:29;7.30;;;4.22;;
81217;SDS011;70689;52.494;13.420;2023-09-18T13:13:05;14.50;;;4.35;;
81217;SDS011;70689;52.494;13.420;2023-09-18T13:15:31;11.18;;;4.20;;
81217;SDS011;70689;52.494;13.420;2023-09-18T13:17:58;7.05;;;4.00;;
81217;SDS011;70689;52.494;13.420;2023-09-18T13:20:26;8.55;;;4.80;;
81217;SDS011;70689;52.494;13.420;2023-09-18T13:22:57;7.53;;;4.32;;
81217;SDS011;70689;52.494;13.420;2023-09-18T13:25:31;4.93;;;3.97;;
81217;SDS011;70689;52.494;13.420;2023-09-18T13:27:59;8.27;;;4.28;;
81217;SDS011;70689;52.494;13.420;2023-09-18T13:30:26;9.15;;;4.30;;
81217;SDS011;70689;52.494;13.420;2023-09-18T13:33:00;7.30;;;4.00;;
81217;SDS011;70689;52.494;13.420;2023-09-18T13:35:29;9.98;;;4.20;;
81217;SDS011;70689;52.494;13.420;2023-09-18T13:37:54;9.90;;;4.30;;
81217;SDS011;70689;52.494;13.420;2023-09-18T13:40:20;10.50;;;4.78;;
81217;SDS011;70689;52.494;13.420;2023-09-18T13:42:47;11.07;;;4.28;;
81217;SDS011;70689;52.494;13.420;2023-09-18T13:45:16;6.78;;;4.18;;
81217;SDS011;70689;52.494;13.420;2023-09-18T13:47:41;10.05;;;4.45;;
81217;SDS011;70689;52.494;13.420;2023-09-18T13:50:07;8.68;;;4.82;;
81217;SDS011;70689;52.494;13.420;2023-09-18T13:52:34;12.57;;;5.20;;
81217;SDS011;70689;52.494;13.420;2023-09-18T13:55:01;7.30;;;4.43;;
81217;SDS011;70689;52.494;13.420;2023-09-18T13:57:30;6.38;;;4.65;;
81217;SDS011;70689;52.494;13.420;2023-09-18T13:59:56;10.65;;;4.85;;
81217;SDS011;70689;52.494;13.420;2023-09-18T14:02:21;7.43;;;3.95;;
81217;SDS011;70689;52.494;13.420;2023-09-18T14:04:52;7.90;;;3.97;;
81217;SDS011;70689;52.494;13.420;2023-09-18T14:07:20;5.93;;;3.33;;
81217;SDS011;70689;52.494;13.420;2023-09-18T14:09:47;10.50;;;5.28;;
81217;SDS011;70689;52.494;13.420;2023-09-18T14:12:13;10.90;;;6.50;;
81217;SDS011;70689;52.494;13.420;2023-09-18T14:14:41;9.80;;;4.88;;
81217;SDS011;70689;52.494;13.420;2023-09-18T14:17:07;10.65;;;5.80;;
81217;SDS011;70689;52.494;13.420;2023-09-18T14:19:36;12.52;;;7.60;;
81217;SDS011;70689;52.494;13.420;2023-09-18T14:22:04;12.93;;;7.20;;
81217;SDS011;70689;52.494;13.420;2023-09-18T14:24:31;11.18;;;8.00;;
81217;SDS011;70689;52.494;13.420;2023-09-18T14:26:59;14.85;;;8.90;;
81217;SDS011;70689;52.494;13.420;2023-09-18T14:29:25;12.80;;;6.25;;
81217;SDS011;70689;52.494;13.420;2023-09-18T14:31:51;6.57;;;5.22;;
81217;SDS011;70689;52.494;13.420;2023-09-18T14:34:17;8.57;;;4.70;;
81217;SDS011;70689;52.494;13.420;2023-09-18T14:36:43;8.93;;;4.47;;
81217;SDS011;70689;52.494;13.420;2023-09-18T14:39:09;14.35;;;6.25;;
81217;SDS011;70689;52.494;13.420;2023-09-18T14:41:36;11.05;;;4.53;;
81217;SDS011;70689;52.494;13.420;2023-09-18T14:44:05;5.35;;;3.65;;
81217;SDS011;70689;52.494;13.420;2023-09-18T14:46:33;7.20;;;3.28;;
81217;SDS011;70689;52.494;13.420;2023-09-18T14:49:00;6.13;;;3.17;;